createdAt,value
2019-05-05T00:01:47.619Z,2.15
2019-05-05T00:04:24.318Z,1.90
2019-05-05T00:06:54.911Z,1.90
2019-05-05T00:09:25.220Z,2.55
2019-05-05T00:12:11.427Z,1.52
2019-05-05T00:14:41.792Z,2.20
2019-05-05T00:17:14.348Z,1.60
2019-05-05T00:19:42.492Z,1.60
2019-05-05T00:22:11.261Z,2.20
2019-05-05T00:24:40.064Z,1.40
2019-05-05T00:27:09.385Z,1.77
2019-05-05T00:29:38.199Z,2.45
2019-05-05T00:32:07.012Z,1.72
2019-05-05T00:34:35.839Z,1.83
2019-05-05T00:37:04.811Z,1.50
2019-05-05T00:39:34.499Z,1.55
2019-05-05T00:44:35.076Z,1.95
2019-05-05T00:47:24.944Z,1.77
2019-05-05T00:49:56.119Z,1.55
2019-05-05T00:52:24.580Z,1.70
2019-05-05T00:54:55.448Z,2.37
2019-05-05T00:57:24.285Z,1.70
2019-05-05T00:59:54.405Z,1.90
2019-05-05T01:02:27.778Z,2.02
2019-05-05T01:05:01.123Z,1.62
2019-05-05T01:07:30.353Z,1.57
2019-05-05T01:09:59.118Z,1.60
2019-05-05T01:12:28.031Z,1.83
2019-05-05T01:14:56.851Z,1.60
2019-05-05T01:17:25.688Z,1.63
2019-05-05T01:20:03.233Z,1.67
2019-05-05T01:22:25.107Z,1.42
2019-05-05T01:24:55.437Z,1.40
2019-05-05T01:27:25.480Z,1.75
2019-05-05T01:29:54.664Z,1.65
2019-05-05T01:32:28.128Z,2.15
2019-05-05T01:34:56.964Z,1.52
2019-05-05T01:37:27.341Z,1.67
2019-05-05T01:40:04.977Z,1.87
2019-05-05T01:42:35.255Z,1.75
2019-05-05T01:45:04.612Z,1.80
2019-05-05T01:47:34.702Z,1.60
2019-05-05T01:50:17.213Z,1.75
2019-05-05T01:52:35.396Z,1.50
2019-05-05T01:55:05.994Z,1.87
2019-05-05T01:57:35.311Z,1.57
2019-05-05T02:00:07.336Z,2.62
2019-05-05T02:02:36.195Z,2.00
2019-05-05T02:05:06.833Z,1.60
2019-05-05T02:07:35.644Z,1.60
2019-05-05T02:10:06.400Z,5.23
2019-05-05T02:12:35.386Z,2.40
2019-05-05T02:15:06.603Z,1.82
2019-05-05T02:17:35.431Z,1.50
2019-05-05T02:20:05.867Z,1.60
2019-05-05T02:22:35.635Z,1.92
2019-05-05T02:25:06.172Z,1.40
2019-05-05T02:27:34.930Z,1.87
2019-05-05T02:30:06.608Z,2.00
2019-05-05T02:32:39.732Z,1.50
2019-05-05T02:35:18.643Z,1.55
2019-05-05T02:37:47.401Z,2.87
2019-05-05T02:40:17.220Z,3.60
2019-05-05T02:45:24.766Z,3.00
2019-05-05T02:48:05.977Z,3.37
2019-05-05T02:50:52.400Z,3.52
2019-05-05T02:53:10.390Z,3.50
2019-05-05T02:55:39.232Z,3.45
2019-05-05T02:58:08.057Z,3.47
2019-05-05T03:00:40.910Z,3.50
2019-05-05T03:03:09.818Z,3.17
2019-05-05T03:05:38.684Z,3.15
2019-05-05T03:08:07.491Z,3.60
2019-05-05T03:10:36.330Z,3.45
2019-05-05T03:13:05.832Z,4.23
2019-05-05T03:15:55.643Z,3.55
2019-05-05T03:18:24.802Z,3.70
2019-05-05T03:21:02.379Z,3.77
2019-05-05T03:23:24.212Z,3.10
2019-05-05T03:25:54.578Z,3.40
2019-05-05T03:28:25.712Z,3.75
2019-05-05T03:30:55.760Z,3.20
2019-05-05T03:33:25.267Z,3.65
2019-05-05T03:35:54.304Z,3.50
2019-05-05T03:38:24.822Z,3.35
2019-05-05T03:40:55.312Z,3.30
2019-05-05T03:43:25.700Z,3.20
2019-05-05T03:45:56.186Z,2.95
2019-05-05T03:48:25.132Z,3.37
2019-05-05T03:50:54.207Z,2.90
2019-05-05T03:53:24.593Z,3.60
2019-05-05T03:55:54.583Z,3.47
2019-05-05T03:58:24.133Z,2.90
2019-05-05T04:00:55.975Z,3.30
2019-05-05T04:03:24.722Z,3.20
2019-05-05T04:05:57.866Z,2.83
2019-05-05T04:08:26.691Z,3.40
2019-05-05T04:10:55.511Z,3.00
2019-05-05T04:13:24.464Z,3.47
2019-05-05T04:16:06.963Z,3.52
2019-05-05T04:18:43.628Z,3.52
2019-05-05T04:21:14.396Z,3.95
2019-05-05T04:23:44.164Z,3.87
2019-05-05T04:26:14.228Z,3.62
2019-05-05T04:28:43.643Z,3.65
2019-05-05T04:31:13.540Z,3.40
2019-05-05T04:33:44.338Z,3.50
2019-05-05T04:36:14.562Z,2.83
2019-05-05T04:38:43.981Z,2.40
2019-05-05T04:41:14.035Z,3.70
2019-05-05T04:43:44.187Z,3.20
2019-05-05T04:46:14.042Z,2.87
2019-05-05T04:54:00.250Z,2.70
2019-05-05T04:56:30.097Z,2.83
2019-05-05T04:58:58.900Z,3.05
2019-05-05T05:01:27.708Z,2.90
2019-05-05T05:04:16.364Z,3.07
2019-05-05T05:06:46.692Z,2.95
2019-05-05T05:09:15.433Z,2.40
2019-05-05T05:11:44.386Z,1.82
2019-05-05T05:14:14.380Z,2.30
2019-05-05T05:16:43.744Z,2.30
2019-05-05T05:19:13.741Z,2.70
2019-05-05T05:21:43.652Z,2.05
2019-05-05T05:24:14.495Z,1.87
2019-05-05T05:26:44.162Z,1.60
2019-05-05T05:29:14.914Z,1.92
2019-05-05T05:31:44.294Z,1.55
2019-05-05T05:36:41.239Z,1.50
2019-05-05T05:39:14.507Z,1.60
2019-05-05T05:41:44.036Z,1.98
2019-05-05T05:44:18.012Z,1.95
2019-05-05T05:46:54.636Z,1.60
2019-05-05T05:49:30.955Z,1.85
2019-05-05T05:52:12.548Z,1.40
2019-05-05T05:54:30.659Z,1.98
2019-05-05T05:56:59.394Z,2.33
2019-05-05T05:59:28.085Z,1.82
2019-05-05T06:02:09.162Z,2.05
2019-05-05T06:04:28.446Z,1.95
2019-05-05T06:06:57.175Z,1.90
2019-05-05T06:09:26.016Z,2.00
2019-05-05T06:11:54.724Z,2.10
2019-05-05T06:14:24.711Z,2.60
2019-05-05T06:16:53.949Z,2.37
2019-05-05T06:19:24.503Z,2.30
2019-05-05T06:21:54.292Z,2.50
2019-05-05T06:24:24.014Z,1.70
2019-05-05T06:26:54.744Z,1.98
2019-05-05T06:29:23.945Z,2.00
2019-05-05T06:31:53.818Z,2.67
2019-05-05T06:34:24.405Z,2.25
2019-05-05T06:39:59.063Z,2.27
2019-05-05T06:42:29.427Z,1.82
2019-05-05T06:45:04.235Z,1.98
2019-05-05T06:47:34.211Z,2.17
2019-05-05T06:50:04.477Z,3.47
2019-05-05T06:52:43.747Z,2.62
2019-05-05T06:55:04.618Z,3.37
2019-05-05T06:57:34.329Z,2.52
2019-05-05T07:00:06.084Z,2.75
2019-05-05T07:02:35.639Z,2.55
2019-05-05T07:05:05.255Z,2.33
2019-05-05T07:07:34.384Z,2.65
2019-05-05T07:10:04.572Z,2.55
2019-05-05T07:12:34.708Z,2.20
2019-05-05T07:15:05.510Z,2.50
2019-05-05T07:17:35.493Z,2.50
2019-05-05T07:20:08.172Z,2.92
2019-05-05T07:22:37.003Z,2.50
2019-05-05T07:25:06.182Z,2.80
2019-05-05T07:27:36.931Z,2.45
2019-05-05T07:30:07.086Z,3.00
2019-05-05T07:32:37.234Z,2.70
2019-05-05T07:35:08.221Z,3.12
2019-05-05T07:37:37.167Z,1.10
2019-05-05T07:40:07.826Z,1.55
2019-05-05T07:42:36.591Z,2.30
2019-05-05T07:45:19.446Z,2.87
2019-05-05T07:47:38.656Z,2.70
2019-05-05T07:50:14.539Z,2.83
2019-05-05T07:52:38.671Z,2.45
2019-05-05T07:55:07.469Z,2.30
2019-05-05T07:57:36.763Z,1.87
2019-05-05T08:00:07.400Z,1.82
2019-05-05T08:02:36.152Z,2.22
2019-05-05T08:05:07.171Z,2.23
2019-05-05T08:07:35.911Z,1.80
2019-05-05T08:10:06.339Z,3.20
2019-05-05T08:12:35.075Z,2.10
2019-05-05T08:15:07.821Z,2.27
2019-05-05T08:17:39.004Z,2.20
2019-05-05T08:20:19.207Z,2.30
2019-05-05T08:22:46.561Z,2.60
2019-05-05T08:25:34.524Z,3.03
2019-05-05T08:28:10.707Z,3.00
2019-05-05T08:30:44.193Z,3.30
2019-05-05T08:33:14.084Z,2.98
2019-05-05T08:35:44.829Z,3.27
2019-05-05T08:38:13.764Z,3.17
2019-05-05T08:40:43.806Z,2.25
2019-05-05T08:43:13.825Z,2.85
2019-05-05T08:45:44.336Z,3.00
2019-05-05T08:48:14.205Z,2.40
2019-05-05T08:50:43.871Z,2.33
2019-05-05T08:55:44.328Z,2.17
2019-05-05T09:01:54.121Z,2.05
2019-05-05T09:04:24.698Z,2.60
2019-05-05T09:06:54.306Z,2.40
2019-05-05T09:09:24.149Z,2.60
2019-05-05T09:11:54.180Z,2.90
2019-05-05T09:14:24.024Z,3.10
2019-05-05T09:21:54.133Z,2.77
2019-05-05T09:24:39.200Z,2.72
2019-05-05T09:27:14.185Z,3.25
2019-05-05T09:29:44.109Z,3.00
2019-05-05T09:32:13.957Z,3.05
2019-05-05T09:34:43.579Z,2.67
2019-05-05T09:39:40.452Z,3.02
2019-05-05T09:42:09.272Z,3.47
2019-05-05T09:44:38.090Z,3.03
2019-05-05T09:47:06.915Z,3.07
2019-05-05T09:49:35.655Z,3.03
2019-05-05T09:52:04.957Z,4.40
2019-05-05T09:54:34.555Z,3.47
2019-05-05T09:57:04.510Z,3.10
2019-05-05T09:59:34.652Z,3.60
2019-05-05T10:02:04.422Z,3.95
2019-05-05T10:04:34.539Z,4.12
2019-05-05T10:07:04.468Z,4.95
2019-05-05T10:09:34.489Z,4.00
2019-05-05T10:12:04.749Z,3.25
2019-05-05T10:14:35.105Z,3.17
2019-05-05T10:17:04.918Z,3.50
2019-05-05T10:19:33.857Z,3.08
2019-05-05T10:22:04.030Z,3.57
2019-05-05T10:24:37.346Z,4.10
2019-05-05T10:27:06.159Z,2.30
2019-05-05T10:29:34.903Z,2.77
2019-05-05T10:32:04.576Z,2.83
2019-05-05T10:34:33.598Z,3.05
2019-05-05T10:37:04.186Z,2.83
2019-05-05T10:39:40.520Z,2.22
2019-05-05T10:42:09.380Z,2.55
2019-05-05T10:44:38.087Z,2.50
2019-05-05T10:47:06.835Z,3.23
2019-05-05T10:49:35.666Z,2.67
2019-05-05T10:52:04.412Z,2.98
2019-05-05T10:54:43.831Z,2.80
2019-05-05T10:57:04.190Z,2.00
2019-05-05T10:59:34.425Z,2.52
2019-05-05T11:02:04.925Z,1.70
2019-05-05T11:04:34.023Z,1.50
2019-05-05T11:07:04.189Z,1.15
2019-05-05T11:09:33.938Z,1.30
2019-05-05T11:12:02.679Z,1.02
2019-05-05T11:14:33.661Z,1.10
2019-05-05T11:17:04.117Z,1.85
2019-05-05T11:19:33.576Z,1.70
2019-05-05T11:22:02.488Z,1.17
2019-05-05T11:24:31.197Z,0.85
2019-05-05T11:26:59.929Z,1.30
2019-05-05T11:29:28.684Z,0.90
2019-05-05T11:31:59.076Z,1.57
2019-05-05T11:34:28.200Z,1.50
2019-05-05T11:36:58.639Z,1.60
2019-05-05T11:39:27.407Z,1.25
2019-05-05T11:41:56.312Z,1.02
2019-05-05T11:44:25.131Z,0.98
2019-05-05T11:46:54.719Z,0.90
2019-05-05T11:49:24.483Z,1.10
2019-05-05T11:51:54.256Z,1.10
2019-05-05T11:54:24.517Z,0.90
2019-05-05T11:56:54.016Z,0.90
2019-05-05T11:59:23.732Z,1.80
2019-05-05T12:01:54.963Z,4.87
2019-05-05T12:04:23.904Z,3.40
2019-05-05T12:06:52.874Z,2.20
2019-05-05T12:09:24.807Z,1.57
2019-05-05T12:11:54.587Z,1.98
2019-05-05T12:14:27.121Z,1.98
2019-05-05T12:16:55.475Z,2.00
2019-05-05T12:19:24.485Z,1.27
2019-05-05T12:21:54.847Z,0.80
2019-05-05T12:24:25.387Z,1.02
2019-05-05T12:26:55.706Z,1.62
2019-05-05T12:29:24.662Z,1.37
2019-05-05T12:31:53.465Z,1.37
2019-05-05T12:34:23.613Z,1.72
2019-05-05T12:36:53.966Z,1.00
2019-05-05T12:39:22.994Z,1.45
2019-05-05T12:42:05.115Z,4.20
2019-05-05T12:44:35.536Z,1.02
2019-05-05T12:47:06.159Z,0.88
2019-05-05T12:49:35.008Z,0.85
2019-05-05T12:52:04.756Z,0.90
2019-05-05T12:54:33.668Z,1.05
2019-05-05T12:57:04.399Z,1.00
2019-05-05T12:59:33.859Z,1.15
2019-05-05T13:02:03.820Z,2.10
2019-05-05T13:04:33.872Z,3.62
2019-05-05T13:07:04.984Z,2.30
2019-05-05T13:09:34.238Z,2.55
2019-05-05T13:12:04.525Z,2.52
2019-05-05T13:14:33.830Z,4.10
2019-05-05T13:17:03.631Z,3.02
2019-05-05T13:19:43.839Z,4.70
2019-05-05T13:22:30.599Z,4.12
2019-05-05T13:25:07.715Z,3.60
2019-05-05T13:27:39.716Z,3.15
2019-05-05T13:30:09.328Z,3.90
2019-05-05T13:32:38.214Z,3.00
2019-05-05T13:35:07.888Z,2.72
2019-05-05T13:37:36.729Z,3.83
2019-05-05T13:40:07.543Z,2.30
2019-05-05T13:42:36.380Z,2.30
2019-05-05T13:45:15.587Z,1.55
2019-05-05T13:50:23.292Z,1.70
2019-05-05T13:55:21.124Z,1.70
2019-05-05T13:57:54.828Z,2.10
2019-05-05T14:00:25.620Z,1.50
2019-05-05T14:02:54.535Z,1.27
2019-05-05T14:05:24.030Z,1.90
2019-05-05T14:07:53.681Z,2.50
2019-05-05T14:10:23.654Z,2.02
2019-05-05T14:12:52.557Z,1.20
2019-05-05T14:15:23.358Z,1.67
2019-05-05T14:17:51.931Z,1.30
2019-05-05T14:20:20.674Z,2.22
2019-05-05T14:22:51.202Z,3.08
2019-05-05T14:25:21.638Z,1.85
2019-05-05T14:27:50.456Z,2.22
2019-05-05T14:30:23.632Z,3.20
2019-05-05T14:32:54.349Z,3.25
2019-05-05T14:35:40.577Z,2.33
2019-05-05T14:38:10.971Z,1.80
2019-05-05T14:40:39.827Z,1.40
2019-05-05T14:43:08.626Z,2.55
2019-05-05T14:45:37.457Z,2.85
2019-05-05T14:48:07.901Z,1.65
2019-05-05T14:50:36.623Z,1.52
2019-05-05T14:53:05.377Z,2.70
2019-05-05T14:55:34.209Z,2.60
2019-05-05T14:58:04.020Z,2.22
2019-05-05T15:00:33.685Z,1.98
2019-05-05T15:03:03.649Z,1.62
2019-05-05T15:05:40.111Z,3.08
2019-05-05T15:08:10.501Z,2.08
2019-05-05T15:10:56.711Z,1.50
2019-05-05T15:13:25.916Z,1.90
2019-05-05T15:15:54.775Z,1.40
2019-05-05T15:18:24.168Z,1.80
2019-05-05T15:20:54.676Z,1.25
2019-05-05T15:23:24.104Z,1.30
2019-05-05T15:25:54.029Z,2.83
2019-05-05T15:28:24.554Z,1.30
2019-05-05T15:30:54.512Z,2.40
2019-05-05T15:33:24.330Z,2.87
2019-05-05T15:35:54.036Z,2.25
2019-05-05T15:38:24.411Z,2.12
2019-05-05T15:40:54.748Z,3.27
2019-05-05T15:43:24.277Z,3.25
2019-05-05T15:45:54.105Z,2.58
2019-05-05T15:48:23.151Z,1.95
2019-05-05T15:50:52.060Z,3.42
2019-05-05T15:53:20.879Z,1.77
2019-05-05T15:55:50.856Z,1.80
2019-05-05T15:58:20.843Z,2.62
2019-05-05T16:00:49.536Z,2.55
2019-05-05T16:03:19.527Z,1.90
2019-05-05T16:05:48.277Z,1.80
2019-05-05T16:08:17.109Z,2.67
2019-05-05T16:10:46.601Z,1.75
2019-05-05T16:13:15.686Z,2.87
2019-05-05T16:15:46.092Z,2.00
2019-05-05T16:18:16.489Z,1.70
2019-05-05T16:20:58.614Z,1.65
2019-05-05T16:23:35.949Z,2.33
2019-05-05T16:26:04.828Z,2.15
2019-05-05T16:28:34.258Z,3.50
2019-05-05T16:33:30.951Z,4.80
2019-05-05T16:35:59.623Z,2.50
2019-05-05T16:38:28.441Z,1.77
2019-05-05T16:40:57.256Z,1.82
2019-05-05T16:43:26.074Z,2.10
2019-05-05T16:45:56.708Z,2.30
2019-05-05T16:48:25.764Z,2.10
2019-05-05T16:53:35.410Z,1.90
2019-05-05T16:56:09.081Z,1.50
2019-05-05T16:58:41.264Z,1.77
2019-05-05T17:01:14.425Z,2.52
2019-05-05T17:03:45.447Z,1.65
2019-05-05T17:06:14.036Z,2.00
2019-05-05T17:08:44.419Z,2.42
2019-05-05T17:11:15.809Z,3.05
2019-05-05T17:13:50.523Z,4.12
2019-05-05T17:16:29.904Z,2.65
2019-05-05T17:19:15.511Z,2.10
2019-05-05T17:21:53.616Z,2.95
2019-05-05T17:24:23.992Z,2.97
2019-05-05T17:26:54.966Z,7.17
2019-05-05T17:29:25.319Z,3.45
2019-05-05T17:31:54.214Z,2.47
2019-05-05T17:34:24.751Z,19.23
2019-05-05T17:36:53.984Z,18.20
2019-05-05T17:39:23.940Z,15.75
2019-05-05T17:41:56.081Z,14.00
2019-05-05T17:44:44.367Z,10.40
2019-05-05T17:47:21.951Z,2.45
2019-05-05T17:50:04.172Z,2.52
2019-05-05T17:52:51.320Z,1.70
2019-05-05T17:55:30.007Z,2.30
2019-05-05T17:58:02.130Z,3.00
2019-05-05T18:00:34.080Z,3.52
2019-05-05T18:03:04.181Z,5.15
2019-05-05T18:05:54.343Z,2.70
2019-05-05T18:08:35.815Z,3.00
2019-05-05T18:11:13.932Z,2.83
2019-05-05T18:13:44.174Z,4.67
2019-05-05T18:16:14.047Z,4.25
2019-05-05T18:18:44.467Z,3.77
2019-05-05T18:21:14.202Z,3.30
2019-05-05T18:23:43.844Z,2.92
2019-05-05T18:28:44.736Z,3.27
2019-05-05T18:31:13.932Z,4.03
2019-05-05T18:33:42.931Z,3.65
2019-05-05T18:36:14.176Z,3.75
2019-05-05T18:38:44.446Z,3.50
2019-05-05T18:41:15.085Z,3.45
2019-05-05T18:43:51.256Z,4.45
2019-05-05T18:46:20.789Z,4.47
2019-05-05T18:48:49.800Z,5.50
2019-05-05T18:51:18.648Z,5.40
2019-05-05T18:53:47.456Z,5.95
2019-05-05T18:56:16.281Z,6.65
2019-05-05T18:58:48.099Z,6.90
2019-05-05T19:01:36.338Z,6.65
2019-05-05T19:04:07.535Z,4.87
2019-05-05T19:06:49.112Z,4.80
2019-05-05T19:09:19.787Z,4.80
2019-05-05T19:11:50.562Z,7.15
2019-05-05T19:14:19.367Z,5.17
2019-05-05T19:16:48.305Z,4.60
2019-05-05T19:19:17.116Z,4.80
2019-05-05T19:22:05.112Z,4.43
2019-05-05T19:24:35.515Z,5.42
2019-05-05T19:27:05.680Z,5.30
2019-05-05T19:29:34.436Z,7.28
2019-05-05T19:32:04.112Z,10.00
2019-05-05T19:37:03.951Z,10.85
2019-05-05T19:39:34.452Z,10.80
2019-05-05T19:42:05.438Z,10.45
2019-05-05T19:44:34.275Z,11.03
2019-05-05T19:47:07.130Z,11.05
2019-05-05T19:49:39.020Z,10.93
2019-05-05T19:52:08.895Z,11.78
2019-05-05T19:54:37.907Z,11.00
2019-05-05T19:57:06.728Z,12.68
2019-05-05T19:59:36.129Z,13.67
2019-05-05T20:02:05.728Z,13.32
2019-05-05T20:04:36.569Z,14.87
2019-05-05T20:07:05.420Z,13.10
2019-05-05T20:09:35.048Z,14.63
2019-05-05T20:12:04.995Z,25.57
2019-05-05T20:14:34.269Z,20.10
2019-05-05T20:17:10.772Z,18.57
2019-05-05T20:19:41.151Z,14.15
2019-05-05T20:22:09.931Z,15.50
2019-05-05T20:24:38.691Z,17.00
2019-05-05T20:27:07.519Z,17.73
2019-05-05T20:29:37.504Z,17.43
2019-05-05T20:32:06.460Z,17.00
2019-05-05T20:34:42.411Z,14.33
2019-05-05T20:37:14.121Z,12.80
2019-05-05T20:39:43.960Z,14.45
2019-05-05T20:42:14.943Z,13.53
2019-05-05T20:44:43.870Z,18.07
2019-05-05T20:47:12.779Z,20.95
2019-05-05T20:49:41.459Z,22.63
2019-05-05T20:52:10.284Z,15.25
2019-05-05T20:54:39.056Z,18.20
2019-05-05T20:57:07.812Z,13.67
2019-05-05T20:59:36.519Z,13.33
2019-05-05T21:02:05.333Z,13.75
2019-05-05T21:04:34.623Z,16.53
2019-05-05T21:07:04.472Z,18.00
2019-05-05T21:09:34.468Z,20.05
2019-05-05T21:12:04.740Z,19.87
2019-05-05T21:14:37.102Z,25.43
2019-05-05T21:17:04.280Z,28.85
2019-05-05T21:19:34.516Z,24.85
2019-05-05T21:22:21.211Z,25.15
2019-05-05T21:24:50.332Z,25.68
2019-05-05T21:27:20.156Z,24.98
2019-05-05T21:29:48.839Z,23.20
2019-05-05T21:32:17.668Z,21.55
2019-05-05T21:34:46.449Z,22.37
2019-05-05T21:37:15.279Z,20.87
2019-05-05T21:39:45.453Z,20.00
2019-05-05T21:42:14.331Z,20.05
2019-05-05T21:44:44.228Z,19.27
2019-05-05T21:47:14.156Z,16.75
2019-05-05T21:49:43.074Z,13.32
2019-05-05T21:52:19.467Z,16.80
2019-05-05T21:54:49.855Z,14.43
2019-05-05T21:57:36.484Z,15.20
2019-05-05T22:00:10.509Z,13.72
2019-05-05T22:02:39.339Z,14.35
2019-05-05T22:05:08.421Z,14.97
2019-05-05T22:07:37.251Z,14.85
2019-05-05T22:10:06.415Z,14.77
2019-05-05T22:12:36.264Z,16.02
2019-05-05T22:15:06.352Z,17.55
2019-05-05T22:17:36.328Z,17.90
2019-05-05T22:20:07.578Z,18.98
2019-05-05T22:22:37.962Z,24.18
2019-05-05T22:25:07.655Z,24.67
2019-05-05T22:30:10.269Z,23.25
2019-05-05T22:32:38.556Z,23.18
2019-05-05T22:35:07.591Z,22.17
2019-05-05T22:37:36.401Z,23.57
2019-05-05T22:40:05.332Z,23.43
2019-05-05T22:42:34.250Z,24.55
2019-05-05T22:45:04.631Z,23.30
2019-05-05T22:47:34.487Z,22.73
2019-05-05T22:50:04.470Z,22.62
2019-05-05T22:52:34.407Z,20.77
2019-05-05T22:55:04.505Z,21.80
2019-05-05T22:57:34.442Z,22.52
2019-05-05T23:00:05.198Z,20.70
2019-05-05T23:02:35.604Z,20.92
2019-05-05T23:05:16.494Z,20.35
2019-05-05T23:07:45.251Z,19.27
2019-05-05T23:10:14.139Z,20.20
2019-05-05T23:12:43.981Z,19.33
2019-05-05T23:17:55.874Z,21.42
2019-05-05T23:20:45.320Z,21.65
2019-05-05T23:23:15.722Z,18.15
2019-05-05T23:25:46.149Z,21.37
2019-05-05T23:28:14.895Z,22.50
2019-05-05T23:30:44.719Z,21.48
2019-05-05T23:33:14.285Z,22.60
2019-05-05T23:35:43.730Z,23.80
2019-05-05T23:38:14.311Z,24.12
2019-05-05T23:40:42.832Z,25.15
2019-05-05T23:43:13.803Z,25.65
2019-05-05T23:45:41.984Z,31.35
2019-05-05T23:48:10.735Z,26.63
2019-05-05T23:50:39.504Z,26.23
2019-05-05T23:53:08.325Z,25.47
2019-05-05T23:55:37.088Z,26.45
2019-05-05T23:58:05.869Z,30.97
